Map

Track Data

SID SEASON NUMBER BASIN SUBBASIN NAME ISO_TIME NATURE LAT LON WMO_WIND WMO_PRES WMO_AGENCY TRACK_TYPE DIST2LAND LANDFALL IFLAG USA_AGENCY USA_ATCF_ID USA_LAT USA_LON USA_RECORD USA_STATUS USA_WIND USA_PRES USA_SSHS USA_R34_NE USA_R34_SE USA_R34_SW USA_R34_NW USA_R50_NE USA_R50_SE USA_R50_SW USA_R50_NW USA_R64_NE USA_R64_SE USA_R64_SW USA_R64_NW USA_POCI USA_ROCI USA_RMW USA_EYE TOKYO_LAT TOKYO_LON TOKYO_GRADE TOKYO_WIND TOKYO_PRES TOKYO_R50_DIR TOKYO_R50_LONG TOKYO_R50_SHORT TOKYO_R30_DIR TOKYO_R30_LONG TOKYO_R30_SHORT TOKYO_LAND CMA_LAT CMA_LON CMA_CAT CMA_WIND CMA_PRES HKO_LAT HKO_LON HKO_CAT HKO_WIND HKO_PRES NEWDELHI_LAT NEWDELHI_LON NEWDELHI_GRADE NEWDELHI_WIND NEWDELHI_PRES NEWDELHI_CI NEWDELHI_DP NEWDELHI_POCI REUNION_LAT REUNION_LON REUNION_TYPE REUNION_WIND REUNION_PRES REUNION_TNUM REUNION_CI REUNION_RMW REUNION_R34_NE REUNION_R34_SE REUNION_R34_SW REUNION_R34_NW REUNION_R50_NE REUNION_R50_SE REUNION_R50_SW REUNION_R50_NW REUNION_R64_NE REUNION_R64_SE REUNION_R64_SW REUNION_R64_NW BOM_LAT BOM_LON BOM_TYPE BOM_WIND BOM_PRES BOM_TNUM BOM_CI BOM_RMW BOM_R34_NE BOM_R34_SE BOM_R34_SW BOM_R34_NW BOM_R50_NE BOM_R50_SE BOM_R50_SW BOM_R50_NW BOM_R64_NE BOM_R64_SE BOM_R64_SW BOM_R64_NW BOM_ROCI BOM_POCI BOM_EYE BOM_POS_METHOD BOM_PRES_METHOD NADI_LAT NADI_LON NADI_CAT NADI_WIND NADI_PRES WELLINGTON_LAT WELLINGTON_LON WELLINGTON_WIND WELLINGTON_PRES DS824_LAT DS824_LON DS824_STAGE DS824_WIND DS824_PRES TD9636_LAT TD9636_LON TD9636_STAGE TD9636_WIND TD9636_PRES TD9635_LAT TD9635_LON TD9635_WIND TD9635_PRES TD9635_ROCI NEUMANN_LAT NEUMANN_LON NEUMANN_CLASS NEUMANN_WIND NEUMANN_PRES MLC_LAT MLC_LON MLC_CLASS MLC_WIND MLC_PRES USA_GUST BOM_GUST BOM_GUST_PER REUNION_GUST REUNION_GUST_PER USA_SEAHGT USA_SEARAD_NE USA_SEARAD_SE USA_SEARAD_SW USA_SEARAD_NW STORM_SPEED STORM_DIR
1963104S19168 1963 37 SP MM NOT_NAMED 1963-04-14 00:00:00 TS -18.6000 168.300 main 229 229 O________OO_O_ jtwc_sh SH471963 -18.6000 168.300 -1 -18.6000 168.300 TC 35 -18.6000 168.300 2 -18.6000 168.300 TC 30 27 149
1963104S19168 1963 37 SP MM NOT_NAMED 1963-04-14 03:00:00 TS -19.7549 169.024 main 337 317 P________PP_P_ SH471963 -19.7558 169.051 -1 -19.7558 169.051 TC 35 -19.8225 169.015 2 -19.6856 168.981 TC 32 27 149
1963104S19168 1963 37 SP MM NOT_NAMED 1963-04-14 06:00:00 TS -20.8989 169.762 main 323 318 O________OP_O_ jtwc_sh SH471963 -20.9000 169.800 -1 -20.9000 169.800 TC 35 -20.9956 169.748 2 -20.8000 169.700 TC 35 27 148
1963104S19168 1963 37 SP MM NOT_NAMED 1963-04-14 09:00:00 TS -22.0086 170.518 main 361 361 P________PP_P_ SH471963 -22.0095 170.543 -1 -22.0095 170.543 TC 35 -22.0708 170.508 2 -21.9447 170.478 TC 35 26 146
1963104S19168 1963 37 SP MM NOT_NAMED 1963-04-14 12:00:00 TS -23.0000 171.300 main 447 447 O________OO_O_ jtwc_sh SH471963 -23.0000 171.300 -1 -23.0000 171.300 TC 35 -23.0000 171.300 2 -23.0000 171.300 TC 35 23 140
1963104S19168 1963 37 SP MM NOT_NAMED 1963-04-14 15:00:00 TS -23.7871 172.118 main 547 547 P________PP_P_ SH471963 -23.7722 172.094 -1 -23.7722 172.094 TC 35 -23.7669 172.124 2 -23.8373 172.159 TC 35 21 135
1963104S19168 1963 37 SP MM NOT_NAMED 1963-04-14 18:00:00 TS -24.5198 172.938 main 650 650 O________OP_O_ jtwc_sh SH471963 -24.5000 172.900 -1 -24.5000 172.900 TC 35 -24.4792 172.951 2 -24.6000 173.000 TC 35 21 135
1963104S19168 1963 37 SP MM NOT_NAMED 1963-04-14 21:00:00 TS -25.2860 173.746 main 759 759 P________PP_P_ SH471963 -25.2726 173.725 -1 -25.2726 173.725 TC 35 -25.2766 173.753 2 -25.3223 173.783 TC 35 23 142
1963104S19168 1963 37 SP MM NOT_NAMED 1963-04-15 00:00:00 TS -26.3000 174.500 main 881 784 O________OO_O_ jtwc_sh SH471963 -26.3000 174.500 -1 -26.3000 174.500 TC 35 -26.3000 174.500 2 -26.3000 174.500 TC 35 28 153
1963104S19168 1963 37 SP MM NOT_NAMED 1963-04-15 03:00:00 TS -27.7824 175.182 main 776 626 P________PP_P_ SH471963 -27.7723 175.181 -1 -27.7723 175.181 TC 35 -27.7624 175.193 2 -27.8224 175.173 TC 37 34 160
1963104S19168 1963 37 SP MM NOT_NAMED 1963-04-15 06:00:00 TS -29.5138 175.809 main 616 485 O________OP_O_ jtwc_sh SH471963 -29.5000 175.800 -1 -29.5000 175.800 TC 35 -29.4551 175.837 2 -29.6000 175.800 TC 40 37 163
1963104S19168 1963 37 SP MM NOT_NAMED 1963-04-15 09:00:00 TS -31.2705 176.431 main 477 364 P________PP_P_ SH471963 -31.2574 176.430 -1 -31.2574 176.430 TC 35 -31.2452 176.438 2 -31.3222 176.423 TC 40 36 164
1963104S19168 1963 37 SP MM NOT_NAMED 1963-04-15 12:00:00 TS -33.0000 177.000 main 356 294 O________OO_O_ jtwc_sh SH471963 -33.0000 177.000 -1 -33.0000 177.000 TC 35 -33.0000 177.000 2 -33.0000 177.000 TC 40 34 165
1963104S19168 1963 37 SP MM NOT_NAMED 1963-04-15 15:00:00 TS -34.5854 177.487 main 286 178 P________PP_P_ SH471963 -34.6017 177.461 -1 -34.6017 177.461 TC 35 -34.6011 177.506 2 -34.5369 177.518 TC 37 32 166
1963104S19168 1963 37 SP MM NOT_NAMED 1963-04-15 18:00:00 TS -36.0847 177.944 main 167 14 O________OP_O_ jtwc_sh SH471963 -36.1000 177.900 -1 -36.1000 177.900 TC 35 -36.1389 177.977 2 -36.0000 178.000 TC 35 31 165
1963104S19168 1963 37 SP MM NOT_NAMED 1963-04-15 21:00:00 TS -37.5526 178.438 main 8 0 P________PP_P_ SH471963 -37.5593 178.407 -1 -37.5593 178.407 TC 35 -37.5826 178.459 2 -37.5093 178.480 TC 35 29 163
1963104S19168 1963 37 SP MM NOT_NAMED 1963-04-16 00:00:00 TS -38.9000 179.000 main 75 75 O________OO_O_ jtwc_sh SH471963 -38.9000 179.000 -1 -38.9000 179.000 TC 35 -38.9000 179.000 2 -38.9000 179.000 TC 35 27 159
1963104S19168 1963 37 SP MM NOT_NAMED 1963-04-16 03:00:00 TS -40.1066 179.680 main 177 177 P________PP_P_ SH471963 -40.1249 179.721 -1 -40.1249 179.721 TC 35 -40.1024 179.680 2 -40.0743 179.600 TC 35 25 154
1963104S19168 1963 37 SP MM NOT_NAMED 1963-04-16 06:00:00 TS -41.1685 180.432 main 299 299 O________OP_O_ jtwc_sh SH471963 -41.2000 -179.500 -1 -41.2000 180.500 TC 35 -41.1741 -179.573 2 -41.1000 -179.700 TC 35 23 150
1963104S19168 1963 37 SP MM NOT_NAMED 1963-04-16 09:00:00 TS -42.1351 181.215 main 417 417 P________PP_P_ SH471963 -42.1519 -178.747 -1 -42.1519 -178.747 TC 35 -42.1337 -178.789 2 -42.1029 -178.858 TC 35 22 148
1963104S19168 1963 37 SP MM NOT_NAMED 1963-04-16 12:00:00 TS -43.0000 182.000 main 525 525 O________OO_O_ jtwc_sh SH471963 -43.0000 -178.000 -1 -43.0000 182.000 TC 35 -43.0000 -178.000 2 -43.0000 -178.000 TC 35 20 146
1963104S19168 1963 37 SP MM NOT_NAMED 1963-04-16 15:00:00 TS -43.8131 182.746 main 618 618 P________PP_P_ SH471963 -43.8370 -177.248 -1 -43.8370 -177.248 TC 35 -43.7920 -177.233 2 -43.7863 -177.289 TC 35 19 146
1963104S19168 1963 37 SP MM NOT_NAMED 1963-04-16 18:00:00 TS -44.5569 183.479 main 716 716 O________OP_O_ jtwc_sh SH471963 -44.6000 -176.500 -1 -44.6000 183.500 TC 35 -44.5278 -176.485 2 -44.5000 -176.600 TC 35 18 144
1963104S19168 1963 37 SP MM NOT_NAMED 1963-04-16 21:00:00 TS -45.2446 184.229 main 797 797 P________PP_P_ SH471963 -45.2760 -175.753 -1 -45.2760 -175.753 TC 35 -45.2248 -175.744 2 -45.2017 -175.833 TC 32 17 141
1963104S19168 1963 37 SP MM NOT_NAMED 1963-04-17 00:00:00 TS -45.9000 185.000 main 890 O________OO_O_ jtwc_sh SH471963 -45.9000 -175.000 -1 -45.9000 185.000 TC 35 -45.9000 -175.000 2 -45.9000 -175.000 TC 30 17 141

Digital Typhoon Data and Search

About IBTrACS Database

This database is a web-friendly format of International Best Track Archive for Climate Stewardship (IBTrACS), a global best track data archive curated by NOAA dating back to 1842.

Updated: 2021-12-03